RYR7MC LIMC-LIBR
Flight info
| Callsign | RYR7MC |
|---|---|
| Flight time | 1h 30m |
| Altitude | 35000 |
| Route | VAKON DCT IBUPU DCT NEVMO DCT LISKO DCT UVOKA L612 DOLON |
| Aircraft | B738/M-SDE2E3FGHIRWXY/LB1 |
Departure
| Time | 2026-04-23 17:45 |
|---|---|
| Airport | Milan Malpensa International Airport (LIMC) |
Arrival
| Time | 2026-04-23 19:15 |
|---|---|
| Airport | Brindisi Airport (LIBR) |
| Time | Latitude | Longitude | Altitude | Speed | Heading |
|---|---|---|---|---|---|
| 2026-04-23 17:05 | 45.62875 | 8.71581 | 735 ft | 0 kts | 169° |
| 2026-04-23 17:31 | 45.62899 | 8.71576 | 733 ft | 4 kts | 173° |
| 2026-04-23 17:31 | 45.62922 | 8.71570 | 734 ft | 2 kts | 162° |
| 2026-04-23 17:32 | 45.62936 | 8.71553 | 732 ft | 4 kts | 99° |
| 2026-04-23 17:32 | 45.62939 | 8.71535 | 734 ft | 6 kts | 102° |
| 2026-04-23 17:32 | 45.62940 | 8.71570 | 734 ft | 4 kts | 81° |
| 2026-04-23 17:32 | 45.62945 | 8.71607 | 735 ft | 2 kts | 79° |
| 2026-04-23 17:33 | 45.62946 | 8.71610 | 735 ft | 1 kts | 79° |
| 2026-04-23 17:36 | 45.62947 | 8.71619 | 735 ft | 5 kts | 79° |
| 2026-04-23 17:36 | 45.62961 | 8.71722 | 735 ft | 14 kts | 80° |
| 2026-04-23 17:36 | 45.62979 | 8.71870 | 735 ft | 13 kts | 81° |
| 2026-04-23 17:36 | 45.62926 | 8.71955 | 734 ft | 13 kts | 169° |
| 2026-04-23 17:37 | 45.62838 | 8.71978 | 735 ft | 13 kts | 169° |
| 2026-04-23 17:37 | 45.62752 | 8.72002 | 736 ft | 12 kts | 168° |
| 2026-04-23 17:37 | 45.62582 | 8.72049 | 736 ft | 14 kts | 169° |
| 2026-04-23 17:38 | 45.62480 | 8.72077 | 736 ft | 17 kts | 169° |
| 2026-04-23 17:38 | 45.62343 | 8.72114 | 735 ft | 23 kts | 169° |
| 2026-04-23 17:38 | 45.62182 | 8.72159 | 736 ft | 23 kts | 168° |
| 2026-04-23 17:38 | 45.62028 | 8.72203 | 736 ft | 22 kts | 169° |
| 2026-04-23 17:39 | 45.61877 | 8.72245 | 734 ft | 22 kts | 169° |
| 2026-04-23 17:39 | 45.61730 | 8.72285 | 735 ft | 21 kts | 169° |
| 2026-04-23 17:39 | 45.61588 | 8.72324 | 734 ft | 20 kts | 170° |
| 2026-04-23 17:39 | 45.61450 | 8.72359 | 736 ft | 20 kts | 168° |
| 2026-04-23 17:40 | 45.61347 | 8.72477 | 736 ft | 19 kts | 133° |
| 2026-04-23 17:40 | 45.61225 | 8.72536 | 736 ft | 19 kts | 171° |
| 2026-04-23 17:40 | 45.61103 | 8.72574 | 736 ft | 18 kts | 149° |
| 2026-04-23 17:40 | 45.61087 | 8.72737 | 738 ft | 17 kts | 79° |
| 2026-04-23 17:41 | 45.61110 | 8.72902 | 739 ft | 17 kts | 79° |
| 2026-04-23 17:41 | 45.61234 | 8.73145 | 736 ft | 16 kts | 33° |
| 2026-04-23 17:41 | 45.61322 | 8.73230 | 736 ft | 15 kts | 34° |
| 2026-04-23 17:42 | 45.61511 | 8.73238 | 736 ft | 14 kts | 349° |
| 2026-04-23 17:42 | 45.61600 | 8.73234 | 736 ft | 13 kts | 35° |
| 2026-04-23 17:42 | 45.61625 | 8.73352 | 736 ft | 13 kts | 81° |
| 2026-04-23 17:43 | 45.61614 | 8.73471 | 735 ft | 12 kts | 123° |
| 2026-04-23 17:43 | 45.61585 | 8.73584 | 736 ft | 12 kts | 94° |
| 2026-04-23 17:43 | 45.61597 | 8.73701 | 736 ft | 10 kts | 78° |
| 2026-04-23 17:43 | 45.61625 | 8.73736 | 736 ft | 5 kts | 4° |
| 2026-04-23 17:44 | 45.61643 | 8.73732 | 736 ft | 0 kts | 348° |
| 2026-04-23 17:44 | 45.61672 | 8.73723 | 735 ft | 19 kts | 348° |
| 2026-04-23 17:45 | 45.62061 | 8.73615 | 736 ft | 95 kts | 348° |
| 2026-04-23 17:45 | 45.64103 | 8.73052 | 1208 ft | 175 kts | 348° |
| 2026-04-23 17:45 | 45.65339 | 8.72746 | 2002 ft | 179 kts | 354° |
| 2026-04-23 17:46 | 45.67312 | 8.74622 | 3711 ft | 185 kts | 64° |
| 2026-04-23 17:46 | 45.67828 | 8.76365 | 4374 ft | 201 kts | 68° |
| 2026-04-23 17:46 | 45.68395 | 8.78260 | 4944 ft | 211 kts | 55° |
| 2026-04-23 17:47 | 45.69447 | 8.79700 | 5625 ft | 210 kts | 37° |
| 2026-04-23 17:47 | 45.70595 | 8.81016 | 6301 ft | 213 kts | 38° |
| 2026-04-23 17:47 | 45.72458 | 8.84380 | 7275 ft | 237 kts | 76° |
| 2026-04-23 17:48 | 45.72460 | 8.86780 | 7894 ft | 248 kts | 103° |
| 2026-04-23 17:48 | 45.71728 | 8.88972 | 8767 ft | 249 kts | 122° |
| 2026-04-23 17:48 | 45.70682 | 8.90968 | 9587 ft | 253 kts | 126° |
| 2026-04-23 17:48 | 45.69575 | 8.92951 | 10337 ft | 256 kts | 127° |
| 2026-04-23 17:49 | 45.68467 | 8.94954 | 11083 ft | 259 kts | 126° |
| 2026-04-23 17:49 | 45.67358 | 8.96993 | 11834 ft | 261 kts | 126° |
| 2026-04-23 17:49 | 45.66247 | 8.99049 | 12573 ft | 264 kts | 125° |
| 2026-04-23 17:49 | 45.65116 | 9.01149 | 13318 ft | 267 kts | 124° |
| 2026-04-23 17:50 | 45.64272 | 9.03493 | 13923 ft | 271 kts | 104° |
| 2026-04-23 17:50 | 45.63285 | 9.09159 | 14298 ft | 317 kts | 101° |
| 2026-04-23 17:50 | 45.62761 | 9.12292 | 14462 ft | 339 kts | 102° |
| 2026-04-23 17:51 | 45.62188 | 9.15646 | 14805 ft | 354 kts | 102° |
| 2026-04-23 17:51 | 45.61588 | 9.19091 | 15433 ft | 359 kts | 102° |
| 2026-04-23 17:51 | 45.60357 | 9.26039 | 16871 ft | 364 kts | 102° |
| 2026-04-23 17:52 | 45.59726 | 9.29568 | 17537 ft | 368 kts | 102° |
| 2026-04-23 17:52 | 45.58447 | 9.36699 | 18791 ft | 375 kts | 102° |
| 2026-04-23 17:52 | 45.57790 | 9.40352 | 19358 ft | 379 kts | 102° |
| 2026-04-23 17:53 | 45.56462 | 9.47717 | 20464 ft | 387 kts | 102° |
| 2026-04-23 17:53 | 45.55798 | 9.51399 | 21010 ft | 390 kts | 101° |
| 2026-04-23 17:53 | 45.55157 | 9.55188 | 21543 ft | 394 kts | 101° |
| 2026-04-23 17:54 | 45.54537 | 9.59015 | 22066 ft | 398 kts | 100° |
| 2026-04-23 17:54 | 45.53918 | 9.62873 | 22604 ft | 401 kts | 100° |
| 2026-04-23 17:54 | 45.52652 | 9.70695 | 23627 ft | 409 kts | 100° |
| 2026-04-23 17:55 | 45.51347 | 9.78640 | 24571 ft | 412 kts | 100° |
| 2026-04-23 17:55 | 45.50689 | 9.82624 | 25048 ft | 414 kts | 100° |
| 2026-04-23 17:55 | 45.50026 | 9.86624 | 25475 ft | 416 kts | 100° |
| 2026-04-23 17:56 | 45.49368 | 9.90592 | 25905 ft | 418 kts | 100° |
| 2026-04-23 17:56 | 45.48052 | 9.98476 | 26760 ft | 421 kts | 101° |
| 2026-04-23 17:56 | 45.47002 | 10.02399 | 27115 ft | 430 kts | 115° |
| 2026-04-23 17:57 | 45.45507 | 10.06106 | 27529 ft | 433 kts | 117° |
| 2026-04-23 17:57 | 45.43967 | 10.09795 | 27954 ft | 434 kts | 117° |
| 2026-04-23 17:57 | 45.40871 | 10.17228 | 28675 ft | 439 kts | 117° |
| 2026-04-23 17:58 | 45.39348 | 10.20933 | 29004 ft | 441 kts | 116° |
| 2026-04-23 17:58 | 45.37804 | 10.24713 | 29427 ft | 442 kts | 116° |
| 2026-04-23 17:58 | 45.36266 | 10.28492 | 29868 ft | 441 kts | 116° |
| 2026-04-23 17:58 | 45.34733 | 10.32258 | 30353 ft | 439 kts | 116° |
| 2026-04-23 17:59 | 45.33204 | 10.36015 | 30777 ft | 438 kts | 116° |
| 2026-04-23 17:59 | 45.31686 | 10.39738 | 31214 ft | 435 kts | 116° |
| 2026-04-23 17:59 | 45.30167 | 10.43459 | 31621 ft | 434 kts | 116° |
| 2026-04-23 17:59 | 45.28672 | 10.47117 | 31964 ft | 434 kts | 116° |
| 2026-04-23 18:00 | 45.27154 | 10.50825 | 32307 ft | 434 kts | 116° |
| 2026-04-23 18:00 | 45.25644 | 10.54508 | 32762 ft | 431 kts | 116° |
| 2026-04-23 18:00 | 45.24136 | 10.58183 | 33173 ft | 429 kts | 116° |
| 2026-04-23 18:00 | 45.22632 | 10.61841 | 33480 ft | 430 kts | 116° |
| 2026-04-23 18:01 | 45.21128 | 10.65499 | 33794 ft | 430 kts | 116° |
| 2026-04-23 18:01 | 45.19622 | 10.69154 | 34207 ft | 427 kts | 116° |
| 2026-04-23 18:01 | 45.18126 | 10.72780 | 34512 ft | 426 kts | 116° |
| 2026-04-23 18:01 | 45.16617 | 10.76413 | 34721 ft | 428 kts | 117° |
| 2026-04-23 18:02 | 45.15102 | 10.79991 | 34901 ft | 430 kts | 117° |
| 2026-04-23 18:02 | 45.13558 | 10.83602 | 35151 ft | 430 kts | 117° |
| 2026-04-23 18:02 | 45.11997 | 10.87246 | 35125 ft | 434 kts | 117° |
| 2026-04-23 18:03 | 45.08866 | 10.94545 | 35135 ft | 432 kts | 117° |
| 2026-04-23 18:03 | 45.05775 | 11.01747 | 35132 ft | 426 kts | 117° |
| 2026-04-23 18:04 | 45.02700 | 11.08912 | 35146 ft | 427 kts | 117° |
| 2026-04-23 18:04 | 44.99614 | 11.16084 | 35151 ft | 427 kts | 117° |
| 2026-04-23 18:05 | 44.96520 | 11.23254 | 35159 ft | 428 kts | 117° |
| 2026-04-23 18:05 | 44.93433 | 11.30390 | 35171 ft | 429 kts | 117° |
| 2026-04-23 18:06 | 44.90319 | 11.37573 | 35181 ft | 430 kts | 117° |
| 2026-04-23 18:06 | 44.87119 | 11.44718 | 35186 ft | 432 kts | 119° |
| 2026-04-23 18:07 | 44.83818 | 11.51798 | 35185 ft | 433 kts | 119° |
| 2026-04-23 18:07 | 44.80525 | 11.58841 | 35182 ft | 434 kts | 119° |
| 2026-04-23 18:08 | 44.77746 | 11.64801 | 35177 ft | 434 kts | 119° |
| 2026-04-23 18:08 | 44.73893 | 11.73065 | 35175 ft | 435 kts | 119° |
| 2026-04-23 18:09 | 44.70568 | 11.80187 | 35176 ft | 436 kts | 120° |
| 2026-04-23 18:09 | 44.67236 | 11.87304 | 35175 ft | 436 kts | 120° |
| 2026-04-23 18:10 | 44.65026 | 11.92013 | 35174 ft | 436 kts | 120° |
| 2026-04-23 18:10 | 44.62127 | 11.98179 | 35171 ft | 437 kts | 120° |
| 2026-04-23 18:11 | 44.58776 | 12.05293 | 35171 ft | 437 kts | 120° |
| 2026-04-23 18:11 | 44.55422 | 12.12393 | 35168 ft | 437 kts | 120° |
| 2026-04-23 18:12 | 44.52082 | 12.19448 | 35165 ft | 437 kts | 120° |
| 2026-04-23 18:12 | 44.48718 | 12.26534 | 35162 ft | 437 kts | 120° |
| 2026-04-23 18:13 | 44.45349 | 12.33615 | 35159 ft | 437 kts | 120° |
| 2026-04-23 18:13 | 44.41977 | 12.40683 | 35157 ft | 437 kts | 120° |
| 2026-04-23 18:14 | 44.38621 | 12.47701 | 35158 ft | 437 kts | 120° |
| 2026-04-23 18:14 | 44.35244 | 12.54747 | 35162 ft | 437 kts | 120° |
| 2026-04-23 18:15 | 44.31859 | 12.61792 | 35157 ft | 437 kts | 120° |
| 2026-04-23 18:15 | 44.28471 | 12.68826 | 35149 ft | 437 kts | 120° |
| 2026-04-23 18:16 | 44.25079 | 12.75851 | 35146 ft | 437 kts | 120° |
| 2026-04-23 18:16 | 44.21704 | 12.82826 | 35149 ft | 437 kts | 120° |
| 2026-04-23 18:17 | 44.16599 | 12.93341 | 35152 ft | 437 kts | 120° |
| 2026-04-23 18:17 | 44.13189 | 13.00345 | 35151 ft | 437 kts | 120° |
| 2026-04-23 18:18 | 44.09770 | 13.07349 | 35153 ft | 437 kts | 120° |
| 2026-04-23 18:18 | 44.06373 | 13.14292 | 35149 ft | 437 kts | 121° |
| 2026-04-23 18:19 | 44.02945 | 13.21281 | 35152 ft | 437 kts | 121° |
| 2026-04-23 18:19 | 43.99642 | 13.28000 | 35158 ft | 438 kts | 121° |
| 2026-04-23 18:20 | 43.96206 | 13.34974 | 35159 ft | 438 kts | 121° |
| 2026-04-23 18:20 | 43.92787 | 13.41896 | 35156 ft | 438 kts | 121° |
| 2026-04-23 18:21 | 43.89337 | 13.48864 | 35160 ft | 438 kts | 121° |
| 2026-04-23 18:21 | 43.85889 | 13.55812 | 35158 ft | 438 kts | 121° |
| 2026-04-23 18:22 | 43.82431 | 13.62764 | 35159 ft | 438 kts | 121° |
| 2026-04-23 18:22 | 43.78993 | 13.69659 | 35158 ft | 438 kts | 121° |
| 2026-04-23 18:23 | 43.73793 | 13.80057 | 35155 ft | 438 kts | 121° |
| 2026-04-23 18:24 | 43.68585 | 13.90435 | 35156 ft | 438 kts | 121° |
| 2026-04-23 18:25 | 43.63389 | 14.00755 | 35157 ft | 438 kts | 121° |
| 2026-04-23 18:25 | 43.59905 | 14.07656 | 35159 ft | 438 kts | 121° |
| 2026-04-23 18:26 | 43.56275 | 14.14414 | 35145 ft | 442 kts | 130° |
| 2026-04-23 18:26 | 43.51840 | 14.20301 | 35155 ft | 443 kts | 134° |
| 2026-04-23 18:27 | 43.47344 | 14.26044 | 35156 ft | 444 kts | 134° |
| 2026-04-23 18:27 | 43.42838 | 14.31841 | 35153 ft | 443 kts | 133° |
| 2026-04-23 18:28 | 43.38348 | 14.37660 | 35152 ft | 443 kts | 133° |
| 2026-04-23 18:28 | 43.33864 | 14.43481 | 35155 ft | 443 kts | 133° |
| 2026-04-23 18:29 | 43.29379 | 14.49295 | 35153 ft | 443 kts | 133° |
| 2026-04-23 18:29 | 43.24923 | 14.55056 | 35155 ft | 443 kts | 133° |
| 2026-04-23 18:30 | 43.20439 | 14.60840 | 35149 ft | 442 kts | 133° |
| 2026-04-23 18:30 | 43.15953 | 14.66615 | 35148 ft | 442 kts | 133° |
| 2026-04-23 18:31 | 43.11475 | 14.72367 | 35149 ft | 441 kts | 133° |
| 2026-04-23 18:31 | 43.07034 | 14.78060 | 35148 ft | 440 kts | 133° |
| 2026-04-23 18:32 | 43.02563 | 14.83779 | 35143 ft | 440 kts | 134° |
| 2026-04-23 18:32 | 42.98099 | 14.89477 | 35145 ft | 439 kts | 134° |
| 2026-04-23 18:33 | 42.93643 | 14.95153 | 35145 ft | 438 kts | 133° |
| 2026-04-23 18:33 | 42.89189 | 15.00816 | 35146 ft | 437 kts | 133° |
| 2026-04-23 18:34 | 42.84774 | 15.06416 | 35142 ft | 436 kts | 133° |
| 2026-04-23 18:34 | 42.80335 | 15.12036 | 35143 ft | 435 kts | 133° |
| 2026-04-23 18:35 | 42.75897 | 15.17644 | 35141 ft | 435 kts | 133° |
| 2026-04-23 18:35 | 42.71466 | 15.23230 | 35142 ft | 434 kts | 133° |
| 2026-04-23 18:36 | 42.67037 | 15.28803 | 35138 ft | 434 kts | 133° |
| 2026-04-23 18:36 | 42.62638 | 15.34326 | 35138 ft | 433 kts | 133° |
| 2026-04-23 18:37 | 42.58215 | 15.39869 | 35139 ft | 433 kts | 133° |
| 2026-04-23 18:37 | 42.53793 | 15.45399 | 35135 ft | 432 kts | 133° |
| 2026-04-23 18:38 | 42.49395 | 15.50889 | 35132 ft | 432 kts | 133° |
| 2026-04-23 18:38 | 42.44974 | 15.56396 | 35137 ft | 432 kts | 133° |
| 2026-04-23 18:39 | 42.40551 | 15.61894 | 35138 ft | 432 kts | 133° |
| 2026-04-23 18:39 | 42.36128 | 15.67382 | 35128 ft | 431 kts | 133° |
| 2026-04-23 18:40 | 42.31706 | 15.72858 | 35139 ft | 431 kts | 133° |
| 2026-04-23 18:40 | 42.27314 | 15.78285 | 35131 ft | 431 kts | 133° |
| 2026-04-23 18:41 | 42.22892 | 15.83737 | 35139 ft | 430 kts | 133° |
| 2026-04-23 18:41 | 42.18471 | 15.89179 | 35132 ft | 430 kts | 133° |
| 2026-04-23 18:42 | 42.14051 | 15.94608 | 35132 ft | 430 kts | 133° |
| 2026-04-23 18:42 | 42.09631 | 16.00027 | 35131 ft | 429 kts | 133° |
| 2026-04-23 18:43 | 42.05273 | 16.05355 | 35118 ft | 419 kts | 133° |
| 2026-04-23 18:43 | 42.00997 | 16.10573 | 35126 ft | 413 kts | 133° |
| 2026-04-23 18:44 | 41.96731 | 16.15778 | 34775 ft | 414 kts | 133° |
| 2026-04-23 18:44 | 41.94614 | 16.18354 | 34468 ft | 408 kts | 133° |
| 2026-04-23 18:44 | 41.92517 | 16.20903 | 34092 ft | 405 kts | 133° |
| 2026-04-23 18:44 | 41.90432 | 16.23435 | 33675 ft | 402 kts | 133° |
| 2026-04-23 18:45 | 41.88365 | 16.25943 | 33271 ft | 399 kts | 133° |
| 2026-04-23 18:45 | 41.86340 | 16.28399 | 32893 ft | 396 kts | 133° |
| 2026-04-23 18:45 | 41.84306 | 16.30864 | 32514 ft | 393 kts | 133° |
| 2026-04-23 18:45 | 41.82285 | 16.33310 | 32140 ft | 390 kts | 133° |
| 2026-04-23 18:46 | 41.80280 | 16.35735 | 31768 ft | 387 kts | 133° |
| 2026-04-23 18:46 | 41.78292 | 16.38138 | 31409 ft | 384 kts | 133° |
| 2026-04-23 18:46 | 41.76312 | 16.40529 | 31050 ft | 381 kts | 132° |
| 2026-04-23 18:46 | 41.74349 | 16.42897 | 30694 ft | 379 kts | 132° |
| 2026-04-23 18:47 | 41.72396 | 16.45252 | 30340 ft | 377 kts | 132° |
| 2026-04-23 18:47 | 41.70481 | 16.47559 | 29963 ft | 374 kts | 132° |
| 2026-04-23 18:47 | 41.68551 | 16.49881 | 29537 ft | 372 kts | 132° |
| 2026-04-23 18:47 | 41.66637 | 16.52181 | 29147 ft | 368 kts | 132° |
| 2026-04-23 18:48 | 41.64741 | 16.54459 | 28775 ft | 365 kts | 132° |
| 2026-04-23 18:48 | 41.62861 | 16.56716 | 28391 ft | 362 kts | 132° |
| 2026-04-23 18:48 | 41.60996 | 16.58952 | 28024 ft | 359 kts | 132° |
| 2026-04-23 18:48 | 41.59147 | 16.61169 | 27656 ft | 356 kts | 132° |
| 2026-04-23 18:49 | 41.57311 | 16.63367 | 27296 ft | 353 kts | 132° |
| 2026-04-23 18:49 | 41.56938 | 16.63813 | 27219 ft | 352 kts | 132° |
| 2026-04-23 18:49 | 41.55404 | 16.65649 | 26918 ft | 350 kts | 132° |
| 2026-04-23 18:50 | 41.54205 | 16.67084 | 26683 ft | 349 kts | 132° |
| 2026-04-23 18:50 | 41.51799 | 16.69960 | 26205 ft | 346 kts | 131° |
| 2026-04-23 18:50 | 41.50012 | 16.72094 | 25850 ft | 344 kts | 131° |
| 2026-04-23 18:50 | 41.48236 | 16.74212 | 25495 ft | 342 kts | 131° |
| 2026-04-23 18:51 | 41.46470 | 16.76319 | 25146 ft | 340 kts | 131° |
| 2026-04-23 18:51 | 41.44734 | 16.78388 | 24800 ft | 338 kts | 131° |
| 2026-04-23 18:51 | 41.42986 | 16.80470 | 24451 ft | 337 kts | 131° |
| 2026-04-23 18:51 | 41.41243 | 16.82543 | 24108 ft | 335 kts | 131° |
| 2026-04-23 18:52 | 41.39507 | 16.84605 | 23751 ft | 334 kts | 131° |
| 2026-04-23 18:52 | 41.37796 | 16.86683 | 23354 ft | 330 kts | 128° |
| 2026-04-23 18:52 | 41.36247 | 16.88918 | 22960 ft | 327 kts | 125° |
| 2026-04-23 18:52 | 41.34753 | 16.91180 | 22592 ft | 324 kts | 125° |
| 2026-04-23 18:53 | 41.33276 | 16.93436 | 22234 ft | 322 kts | 125° |
| 2026-04-23 18:53 | 41.31830 | 16.95636 | 21916 ft | 319 kts | 125° |
| 2026-04-23 18:53 | 41.30369 | 16.97848 | 21583 ft | 317 kts | 125° |
| 2026-04-23 18:53 | 41.28917 | 17.00037 | 21253 ft | 315 kts | 125° |
| 2026-04-23 18:54 | 41.27471 | 17.02213 | 20935 ft | 315 kts | 125° |
| 2026-04-23 18:54 | 41.26017 | 17.04398 | 20612 ft | 316 kts | 125° |
| 2026-04-23 18:54 | 41.24559 | 17.06586 | 20288 ft | 317 kts | 125° |
| 2026-04-23 18:54 | 41.23098 | 17.08774 | 19956 ft | 316 kts | 125° |
| 2026-04-23 18:55 | 41.21641 | 17.10954 | 19624 ft | 314 kts | 126° |
| 2026-04-23 18:55 | 41.20211 | 17.13090 | 19302 ft | 313 kts | 126° |
| 2026-04-23 18:55 | 41.18769 | 17.15243 | 18979 ft | 312 kts | 126° |
| 2026-04-23 18:55 | 41.17330 | 17.17387 | 18656 ft | 311 kts | 126° |
| 2026-04-23 18:56 | 41.16358 | 17.18832 | 18444 ft | 310 kts | 126° |
| 2026-04-23 18:56 | 41.14461 | 17.21650 | 17966 ft | 309 kts | 126° |
| 2026-04-23 18:56 | 41.13031 | 17.23771 | 17621 ft | 307 kts | 126° |
| 2026-04-23 18:56 | 41.11613 | 17.25875 | 17292 ft | 305 kts | 126° |
| 2026-04-23 18:57 | 41.10203 | 17.27966 | 16970 ft | 303 kts | 126° |
| 2026-04-23 18:57 | 41.08817 | 17.30020 | 16658 ft | 302 kts | 126° |
| 2026-04-23 18:57 | 41.07423 | 17.32085 | 16348 ft | 300 kts | 126° |
| 2026-04-23 18:57 | 41.06027 | 17.34153 | 16038 ft | 302 kts | 126° |
| 2026-04-23 18:58 | 41.04623 | 17.36231 | 15728 ft | 304 kts | 126° |
| 2026-04-23 18:58 | 41.03216 | 17.38312 | 15409 ft | 303 kts | 127° |
| 2026-04-23 18:58 | 41.01813 | 17.40383 | 15093 ft | 301 kts | 127° |
| 2026-04-23 18:58 | 41.00418 | 17.42442 | 14780 ft | 300 kts | 127° |
| 2026-04-23 18:59 | 40.99044 | 17.44470 | 14473 ft | 299 kts | 127° |
| 2026-04-23 18:59 | 40.97657 | 17.46514 | 14163 ft | 298 kts | 127° |
| 2026-04-23 18:59 | 40.96274 | 17.48552 | 13850 ft | 297 kts | 127° |
| 2026-04-23 18:59 | 40.94896 | 17.50582 | 13513 ft | 296 kts | 127° |
| 2026-04-23 19:00 | 40.93522 | 17.52606 | 13174 ft | 295 kts | 127° |
| 2026-04-23 19:00 | 40.92166 | 17.54600 | 12859 ft | 293 kts | 127° |
| 2026-04-23 19:00 | 40.90808 | 17.56596 | 12549 ft | 291 kts | 127° |
| 2026-04-23 19:00 | 40.89452 | 17.58583 | 12246 ft | 290 kts | 127° |
| 2026-04-23 19:01 | 40.88123 | 17.60568 | 11929 ft | 288 kts | 126° |
| 2026-04-23 19:01 | 40.86830 | 17.62574 | 11606 ft | 287 kts | 126° |
| 2026-04-23 19:01 | 40.85563 | 17.64560 | 11299 ft | 285 kts | 125° |
| 2026-04-23 19:01 | 40.84289 | 17.66560 | 10996 ft | 284 kts | 125° |
| 2026-04-23 19:02 | 40.83430 | 17.67904 | 10800 ft | 283 kts | 126° |
| 2026-04-23 19:02 | 40.81751 | 17.70529 | 10405 ft | 282 kts | 126° |
| 2026-04-23 19:02 | 40.80490 | 17.72493 | 10184 ft | 278 kts | 126° |
| 2026-04-23 19:02 | 40.79255 | 17.74411 | 10008 ft | 273 kts | 126° |
| 2026-04-23 19:03 | 40.78022 | 17.76331 | 9710 ft | 275 kts | 126° |
| 2026-04-23 19:03 | 40.76787 | 17.78253 | 9415 ft | 274 kts | 126° |
| 2026-04-23 19:03 | 40.75558 | 17.80162 | 9135 ft | 272 kts | 126° |
| 2026-04-23 19:03 | 40.74354 | 17.82031 | 8861 ft | 270 kts | 126° |
| 2026-04-23 19:04 | 40.73140 | 17.83915 | 8584 ft | 269 kts | 126° |
| 2026-04-23 19:04 | 40.71932 | 17.85788 | 8311 ft | 267 kts | 126° |
| 2026-04-23 19:04 | 40.70732 | 17.87647 | 8052 ft | 265 kts | 126° |
| 2026-04-23 19:04 | 40.69542 | 17.89491 | 7775 ft | 264 kts | 125° |
| 2026-04-23 19:05 | 40.68355 | 17.91328 | 7508 ft | 262 kts | 126° |
| 2026-04-23 19:05 | 40.67240 | 17.93050 | 7260 ft | 260 kts | 125° |
| 2026-04-23 19:05 | 40.66015 | 17.94943 | 7098 ft | 254 kts | 125° |
| 2026-04-23 19:05 | 40.64882 | 17.96696 | 6804 ft | 257 kts | 126° |
| 2026-04-23 19:06 | 40.63721 | 17.98494 | 6495 ft | 258 kts | 125° |
| 2026-04-23 19:06 | 40.62557 | 18.00295 | 6189 ft | 258 kts | 126° |
| 2026-04-23 19:06 | 40.61394 | 18.02092 | 5891 ft | 258 kts | 126° |
| 2026-04-23 19:06 | 40.60230 | 18.03890 | 5605 ft | 257 kts | 126° |
| 2026-04-23 19:07 | 40.59072 | 18.05680 | 5330 ft | 257 kts | 126° |
| 2026-04-23 19:07 | 40.57914 | 18.07468 | 5039 ft | 257 kts | 126° |
| 2026-04-23 19:07 | 40.56755 | 18.09254 | 4759 ft | 256 kts | 126° |
| 2026-04-23 19:07 | 40.55616 | 18.11011 | 4440 ft | 257 kts | 126° |
| 2026-04-23 19:08 | 40.54452 | 18.12802 | 4120 ft | 258 kts | 127° |
| 2026-04-23 19:08 | 40.53283 | 18.14601 | 3788 ft | 260 kts | 126° |
| 2026-04-23 19:08 | 40.52110 | 18.16403 | 3534 ft | 258 kts | 127° |
| 2026-04-23 19:08 | 40.50655 | 18.17714 | 3433 ft | 256 kts | 162° |
| 2026-04-23 19:09 | 40.48935 | 18.17680 | 3276 ft | 247 kts | 200° |
| 2026-04-23 19:09 | 40.47619 | 18.16368 | 2984 ft | 232 kts | 244° |
| 2026-04-23 19:09 | 40.47283 | 18.14484 | 2863 ft | 203 kts | 285° |
| 2026-04-23 19:09 | 40.47932 | 18.13011 | 2567 ft | 182 kts | 330° |
| 2026-04-23 19:10 | 40.49094 | 18.12561 | 2384 ft | 168 kts | 350° |
| 2026-04-23 19:10 | 40.50173 | 18.12108 | 2266 ft | 158 kts | 338° |
| 2026-04-23 19:10 | 40.51136 | 18.11497 | 2096 ft | 155 kts | 336° |
| 2026-04-23 19:10 | 40.52091 | 18.10818 | 2054 ft | 157 kts | 331° |
| 2026-04-23 19:11 | 40.52986 | 18.10012 | 2025 ft | 155 kts | 328° |
| 2026-04-23 19:11 | 40.53861 | 18.09188 | 2026 ft | 155 kts | 327° |
| 2026-04-23 19:11 | 40.54706 | 18.08292 | 2027 ft | 157 kts | 323° |
| 2026-04-23 19:11 | 40.55523 | 18.07337 | 2019 ft | 157 kts | 322° |
| 2026-04-23 19:12 | 40.56056 | 18.06694 | 2020 ft | 157 kts | 322° |
| 2026-04-23 19:12 | 40.57120 | 18.05394 | 2017 ft | 155 kts | 322° |
| 2026-04-23 19:12 | 40.57907 | 18.04428 | 2017 ft | 154 kts | 322° |
| 2026-04-23 19:12 | 40.58683 | 18.03474 | 1937 ft | 157 kts | 322° |
| 2026-04-23 19:13 | 40.59478 | 18.02497 | 1734 ft | 154 kts | 321° |
| 2026-04-23 19:13 | 40.60229 | 18.01572 | 1542 ft | 142 kts | 321° |
| 2026-04-23 19:13 | 40.60934 | 18.00708 | 1349 ft | 136 kts | 320° |
| 2026-04-23 19:13 | 40.61616 | 17.99870 | 1205 ft | 131 kts | 320° |
| 2026-04-23 19:14 | 40.62272 | 17.99064 | 995 ft | 127 kts | 320° |
| 2026-04-23 19:14 | 40.62937 | 17.98249 | 830 ft | 133 kts | 321° |
| 2026-04-23 19:14 | 40.63619 | 17.97413 | 636 ft | 135 kts | 320° |
| 2026-04-23 19:14 | 40.64305 | 17.96544 | 479 ft | 140 kts | 319° |
| 2026-04-23 19:15 | 40.65020 | 17.95680 | 296 ft | 144 kts | 319° |
| 2026-04-23 19:15 | 40.65757 | 17.94773 | 67 ft | 144 kts | 320° |
| 2026-04-23 19:15 | 40.66418 | 17.93989 | 41 ft | 100 kts | 317° |
| 2026-04-23 19:15 | 40.66770 | 17.93562 | 38 ft | 45 kts | 317° |
| 2026-04-23 19:16 | 40.66981 | 17.93304 | 40 ft | 38 kts | 316° |
| 2026-04-23 19:16 | 40.67155 | 17.93085 | 40 ft | 29 kts | 316° |
| 2026-04-23 19:16 | 40.67256 | 17.92996 | 40 ft | 15 kts | 4° |
| 2026-04-23 19:17 | 40.67315 | 17.93184 | 42 ft | 13 kts | 136° |
| 2026-04-23 19:17 | 40.67249 | 17.93265 | 43 ft | 13 kts | 137° |
| 2026-04-23 19:17 | 40.67184 | 17.93342 | 43 ft | 12 kts | 138° |
| 2026-04-23 19:17 | 40.67121 | 17.93418 | 43 ft | 13 kts | 137° |
| 2026-04-23 19:18 | 40.67045 | 17.93512 | 43 ft | 18 kts | 137° |
| 2026-04-23 19:18 | 40.66941 | 17.93639 | 43 ft | 21 kts | 137° |
| 2026-04-23 19:18 | 40.66837 | 17.93768 | 43 ft | 20 kts | 137° |
| 2026-04-23 19:18 | 40.66735 | 17.93891 | 42 ft | 20 kts | 137° |
| 2026-04-23 19:19 | 40.66543 | 17.94127 | 43 ft | 18 kts | 138° |
| 2026-04-23 19:19 | 40.66451 | 17.94236 | 43 ft | 18 kts | 138° |
| 2026-04-23 19:20 | 40.66277 | 17.94447 | 43 ft | 16 kts | 136° |
| 2026-04-23 19:20 | 40.66195 | 17.94548 | 43 ft | 16 kts | 136° |
| 2026-04-23 19:20 | 40.66117 | 17.94645 | 43 ft | 15 kts | 138° |
| 2026-04-23 19:20 | 40.66029 | 17.94690 | 42 ft | 15 kts | 210° |
| 2026-04-23 19:21 | 40.65959 | 17.94585 | 38 ft | 16 kts | 233° |
| 2026-04-23 19:21 | 40.65825 | 17.94356 | 42 ft | 15 kts | 232° |
| 2026-04-23 19:21 | 40.65762 | 17.94248 | 43 ft | 15 kts | 232° |
| 2026-04-23 19:22 | 40.65719 | 17.94175 | 43 ft | 0 kts | 232° |
| 2026-04-23 19:22 | 40.65718 | 17.94165 | 43 ft | 5 kts | 255° |
| 2026-04-23 19:22 | 40.65776 | 17.94080 | 43 ft | 2 kts | 322° |
| 2026-04-23 19:23 | 40.65785 | 17.94070 | 43 ft | 0 kts | 322° |